Tonasket, Washington
Current Conditions -  °F | °C
As of 1:53 AM on Saturday 22 Nov 2014 (Local Time) from KOMK Reporting Station
Overcast Overcast  
Wind Chill: 28°   Ceiling: 1900
Heat Index: 33°   Visibility: 9mi
Dew Point: 31°   Wind: 6mph
Humidity: 92%   Direction: 200°SSW
Pressure: 29.41"   Gusts: NA
Location:  48.71°N, 119.44°W
Report Text: KOMK 220953Z AUTO 20005KT 9SM OVC019 01/M01 A2941 RMK AO2 SLP971 T00061006
Loading
Personal Weather Stations






























Interactive Weather Map New forecast layout! Learn more

10-Day Weather Forecast

Advertisements
Track Severe Weather on mobile